sensor_id;sensor_type;location;lat;lon;timestamp;temperature;humidity
71173;DHT22;58875;51.996;4.504;2023-04-30T00:00:19;9.46;76.10
71173;DHT22;58875;51.996;4.504;2023-04-30T00:02:45;9.44;76.35
71173;DHT22;58875;51.996;4.504;2023-04-30T00:05:10;9.47;76.52
71173;DHT22;58875;51.996;4.504;2023-04-30T00:07:36;9.44;76.69
71173;DHT22;58875;51.996;4.504;2023-04-30T00:10:08;9.47;76.84
71173;DHT22;58875;51.996;4.504;2023-04-30T00:12:33;9.44;76.79
71173;DHT22;58875;51.996;4.504;2023-04-30T00:14:59;9.43;77.07
71173;DHT22;58875;51.996;4.504;2023-04-30T00:17:25;9.44;77.09
71173;DHT22;58875;51.996;4.504;2023-04-30T00:19:51;9.43;77.06
71173;DHT22;58875;51.996;4.504;2023-04-30T00:22:17;9.43;77.24
71173;DHT22;58875;51.996;4.504;2023-04-30T00:24:42;9.40;77.29
71173;DHT22;58875;51.996;4.504;2023-04-30T00:27:07;9.43;77.26
71173;DHT22;58875;51.996;4.504;2023-04-30T00:29:33;9.42;77.21
71173;DHT22;58875;51.996;4.504;2023-04-30T00:31:59;9.39;77.25
71173;DHT22;58875;51.996;4.504;2023-04-30T00:34:24;9.40;77.32
71173;DHT22;58875;51.996;4.504;2023-04-30T00:36:50;9.39;77.55
71173;DHT22;58875;51.996;4.504;2023-04-30T00:39:15;9.37;77.53
71173;DHT22;58875;51.996;4.504;2023-04-30T00:41:41;9.36;77.58
71173;DHT22;58875;51.996;4.504;2023-04-30T00:44:07;9.36;77.47
71173;DHT22;58875;51.996;4.504;2023-04-30T00:46:33;9.33;77.45
71173;DHT22;58875;51.996;4.504;2023-04-30T00:49:16;9.27;77.41
71173;DHT22;58875;51.996;4.504;2023-04-30T00:51:42;9.26;77.58
71173;DHT22;58875;51.996;4.504;2023-04-30T00:54:08;9.29;77.62
71173;DHT22;58875;51.996;4.504;2023-04-30T00:56:34;9.29;77.66
71173;DHT22;58875;51.996;4.504;2023-04-30T00:59:00;9.23;77.76
71173;DHT22;58875;51.996;4.504;2023-04-30T01:01:27;9.20;77.79
71173;DHT22;58875;51.996;4.504;2023-04-30T01:03:53;9.18;77.86
71173;DHT22;58875;51.996;4.504;2023-04-30T01:06:19;9.19;77.88
71173;DHT22;58875;51.996;4.504;2023-04-30T01:08:45;9.12;78.04
71173;DHT22;58875;51.996;4.504;2023-04-30T01:17:22;9.01;78.00
71173;DHT22;58875;51.996;4.504;2023-04-30T01:19:50;8.98;78.11
71173;DHT22;58875;51.996;4.504;2023-04-30T01:28:04;8.86;78.00
71173;DHT22;58875;51.996;4.504;2023-04-30T01:30:30;8.81;78.10
71173;DHT22;58875;51.996;4.504;2023-04-30T01:32:56;8.78;78.47
71173;DHT22;58875;51.996;4.504;2023-04-30T01:40:51;8.74;78.21
71173;DHT22;58875;51.996;4.504;2023-04-30T01:46:31;8.69;78.32
71173;DHT22;58875;51.996;4.504;2023-04-30T01:51:54;8.67;78.58
71173;DHT22;58875;51.996;4.504;2023-04-30T01:54:52;8.64;78.67
71173;DHT22;58875;51.996;4.504;2023-04-30T01:57:36;8.71;78.65
71173;DHT22;58875;51.996;4.504;2023-04-30T02:00:03;8.67;78.67
71173;DHT22;58875;51.996;4.504;2023-04-30T02:02:29;8.64;78.61
71173;DHT22;58875;51.996;4.504;2023-04-30T02:04:55;8.69;78.97
71173;DHT22;58875;51.996;4.504;2023-04-30T02:07:50;8.67;78.87
71173;DHT22;58875;51.996;4.504;2023-04-30T02:10:19;8.68;78.85
71173;DHT22;58875;51.996;4.504;2023-04-30T02:12:45;8.61;78.90
71173;DHT22;58875;51.996;4.504;2023-04-30T02:15:11;8.58;78.96
71173;DHT22;58875;51.996;4.504;2023-04-30T02:17:36;8.57;78.94
71173;DHT22;58875;51.996;4.504;2023-04-30T02:20:02;8.61;78.98
71173;DHT22;58875;51.996;4.504;2023-04-30T02:22:29;8.60;79.03
71173;DHT22;58875;51.996;4.504;2023-04-30T02:24:54;8.60;79.11
71173;DHT22;58875;51.996;4.504;2023-04-30T02:27:23;8.61;79.10
71173;DHT22;58875;51.996;4.504;2023-04-30T02:29:49;8.57;79.11
71173;DHT22;58875;51.996;4.504;2023-04-30T02:32:15;8.54;79.03
71173;DHT22;58875;51.996;4.504;2023-04-30T02:34:41;8.48;79.19
71173;DHT22;58875;51.996;4.504;2023-04-30T02:37:07;8.50;79.31
71173;DHT22;58875;51.996;4.504;2023-04-30T02:39:33;8.45;79.58
71173;DHT22;58875;51.996;4.504;2023-04-30T02:41:59;8.53;79.50
71173;DHT22;58875;51.996;4.504;2023-04-30T02:44:25;8.54;79.48
71173;DHT22;58875;51.996;4.504;2023-04-30T02:46:51;8.47;79.43
71173;DHT22;58875;51.996;4.504;2023-04-30T02:49:16;8.50;79.43
71173;DHT22;58875;51.996;4.504;2023-04-30T02:51:42;8.41;79.29
71173;DHT22;58875;51.996;4.504;2023-04-30T02:54:08;8.38;79.30
71173;DHT22;58875;51.996;4.504;2023-04-30T02:56:33;8.37;79.53
71173;DHT22;58875;51.996;4.504;2023-04-30T02:58:59;8.34;79.38
71173;DHT22;58875;51.996;4.504;2023-04-30T03:01:25;8.40;79.91
71173;DHT22;58875;51.996;4.504;2023-04-30T03:03:51;8.50;79.72
71173;DHT22;58875;51.996;4.504;2023-04-30T03:06:17;8.45;79.77
71173;DHT22;58875;51.996;4.504;2023-04-30T03:08:42;8.45;79.77
71173;DHT22;58875;51.996;4.504;2023-04-30T03:11:08;8.40;79.77
71173;DHT22;58875;51.996;4.504;2023-04-30T03:13:33;8.37;79.83
71173;DHT22;58875;51.996;4.504;2023-04-30T03:16:00;8.33;79.78
71173;DHT22;58875;51.996;4.504;2023-04-30T03:18:27;8.26;79.65
71173;DHT22;58875;51.996;4.504;2023-04-30T03:20:53;8.19;79.75
71173;DHT22;58875;51.996;4.504;2023-04-30T03:23:19;8.20;79.89
71173;DHT22;58875;51.996;4.504;2023-04-30T03:25:45;8.17;80.27
71173;DHT22;58875;51.996;4.504;2023-04-30T03:28:10;8.20;80.06
71173;DHT22;58875;51.996;4.504;2023-04-30T03:30:36;8.24;80.40
71173;DHT22;58875;51.996;4.504;2023-04-30T03:33:01;8.24;80.15
71173;DHT22;58875;51.996;4.504;2023-04-30T03:35:27;8.27;80.32
71173;DHT22;58875;51.996;4.504;2023-04-30T03:37:52;8.24;80.30
71173;DHT22;58875;51.996;4.504;2023-04-30T03:40:18;8.26;80.13
71173;DHT22;58875;51.996;4.504;2023-04-30T03:42:43;8.22;80.00
71173;DHT22;58875;51.996;4.504;2023-04-30T03:45:09;8.16;79.79
71173;DHT22;58875;51.996;4.504;2023-04-30T03:47:35;8.13;79.75
71173;DHT22;58875;51.996;4.504;2023-04-30T03:50:04;8.06;79.75
71173;DHT22;58875;51.996;4.504;2023-04-30T03:52:30;8.00;79.57
71173;DHT22;58875;51.996;4.504;2023-04-30T03:54:56;8.00;79.45
71173;DHT22;58875;51.996;4.504;2023-04-30T03:57:21;7.92;79.71
71173;DHT22;58875;51.996;4.504;2023-04-30T03:59:48;7.96;80.09
71173;DHT22;58875;51.996;4.504;2023-04-30T04:02:14;8.00;80.44
71173;DHT22;58875;51.996;4.504;2023-04-30T04:04:40;8.02;80.66
71173;DHT22;58875;51.996;4.504;2023-04-30T04:07:05;8.10;81.10
71173;DHT22;58875;51.996;4.504;2023-04-30T04:09:32;8.16;81.26
71173;DHT22;58875;51.996;4.504;2023-04-30T04:11:57;8.23;81.70
71173;DHT22;58875;51.996;4.504;2023-04-30T04:14:23;8.27;81.60
71173;DHT22;58875;51.996;4.504;2023-04-30T04:16:48;8.36;81.72
71173;DHT22;58875;51.996;4.504;2023-04-30T04:19:14;8.43;81.48
71173;DHT22;58875;51.996;4.504;2023-04-30T04:21:39;8.44;81.57
71173;DHT22;58875;51.996;4.504;2023-04-30T04:24:05;8.48;81.32
71173;DHT22;58875;51.996;4.504;2023-04-30T04:26:36;8.53;81.05
71173;DHT22;58875;51.996;4.504;2023-04-30T04:29:02;8.50;81.12
71173;DHT22;58875;51.996;4.504;2023-04-30T04:31:29;8.51;80.97
71173;DHT22;58875;51.996;4.504;2023-04-30T04:33:58;8.45;81.14
71173;DHT22;58875;51.996;4.504;2023-04-30T04:36:25;8.57;81.28
71173;DHT22;58875;51.996;4.504;2023-04-30T04:38:55;8.55;81.34
71173;DHT22;58875;51.996;4.504;2023-04-30T04:41:31;8.55;81.37
71173;DHT22;58875;51.996;4.504;2023-04-30T04:43:58;8.60;81.22
71173;DHT22;58875;51.996;4.504;2023-04-30T04:46:24;8.58;81.24
71173;DHT22;58875;51.996;4.504;2023-04-30T04:48:53;8.63;81.31
71173;DHT22;58875;51.996;4.504;2023-04-30T04:51:19;8.68;81.31
71173;DHT22;58875;51.996;4.504;2023-04-30T04:53:45;8.68;81.05
71173;DHT22;58875;51.996;4.504;2023-04-30T04:56:11;8.75;81.09
71173;DHT22;58875;51.996;4.504;2023-04-30T04:58:37;8.76;80.84
71173;DHT22;58875;51.996;4.504;2023-04-30T05:01:03;8.82;80.91
71173;DHT22;58875;51.996;4.504;2023-04-30T05:03:31;8.82;80.79
71173;DHT22;58875;51.996;4.504;2023-04-30T05:05:57;8.85;80.73
71173;DHT22;58875;51.996;4.504;2023-04-30T05:08:22;8.91;80.57
71173;DHT22;58875;51.996;4.504;2023-04-30T05:10:48;8.93;80.44
71173;DHT22;58875;51.996;4.504;2023-04-30T05:13:13;8.96;80.39
71173;DHT22;58875;51.996;4.504;2023-04-30T05:15:39;8.99;80.42
71173;DHT22;58875;51.996;4.504;2023-04-30T05:18:04;9.04;80.35
71173;DHT22;58875;51.996;4.504;2023-04-30T05:20:30;9.08;80.23
71173;DHT22;58875;51.996;4.504;2023-04-30T05:22:55;9.05;80.21
71173;DHT22;58875;51.996;4.504;2023-04-30T05:25:21;9.06;80.08
71173;DHT22;58875;51.996;4.504;2023-04-30T05:27:46;9.02;80.12
71173;DHT22;58875;51.996;4.504;2023-04-30T05:30:12;9.08;80.10
71173;DHT22;58875;51.996;4.504;2023-04-30T05:32:40;9.09;79.92
71173;DHT22;58875;51.996;4.504;2023-04-30T05:35:06;9.11;80.03
71173;DHT22;58875;51.996;4.504;2023-04-30T05:37:31;9.12;79.62
71173;DHT22;58875;51.996;4.504;2023-04-30T05:39:57;9.19;79.80
71173;DHT22;58875;51.996;4.504;2023-04-30T05:42:22;9.27;79.65
71173;DHT22;58875;51.996;4.504;2023-04-30T05:44:48;9.27;79.35
71173;DHT22;58875;51.996;4.504;2023-04-30T05:47:14;9.37;79.39
71173;DHT22;58875;51.996;4.504;2023-04-30T05:49:39;9.35;78.83
71173;DHT22;58875;51.996;4.504;2023-04-30T05:52:05;9.42;79.20
71173;DHT22;58875;51.996;4.504;2023-04-30T05:54:31;9.43;78.66
71173;DHT22;58875;51.996;4.504;2023-04-30T05:56:57;9.50;78.82
71173;DHT22;58875;51.996;4.504;2023-04-30T05:59:22;9.57;78.72
71173;DHT22;58875;51.996;4.504;2023-04-30T06:01:48;9.66;78.32
71173;DHT22;58875;51.996;4.504;2023-04-30T06:04:14;9.69;78.20
71173;DHT22;58875;51.996;4.504;2023-04-30T06:06:39;9.71;78.03
71173;DHT22;58875;51.996;4.504;2023-04-30T06:09:05;9.73;77.76
71173;DHT22;58875;51.996;4.504;2023-04-30T06:11:31;9.80;77.21
71173;DHT22;58875;51.996;4.504;2023-04-30T06:13:57;9.76;77.08
71173;DHT22;58875;51.996;4.504;2023-04-30T06:16:23;9.78;77.23
71173;DHT22;58875;51.996;4.504;2023-04-30T06:18:48;9.90;76.92
71173;DHT22;58875;51.996;4.504;2023-04-30T06:21:14;9.85;76.72
71173;DHT22;58875;51.996;4.504;2023-04-30T06:23:40;10.04;77.09
71173;DHT22;58875;51.996;4.504;2023-04-30T06:26:05;10.21;76.50
71173;DHT22;58875;51.996;4.504;2023-04-30T06:28:31;10.31;76.20
71173;DHT22;58875;51.996;4.504;2023-04-30T06:30:56;10.46;76.01
71173;DHT22;58875;51.996;4.504;2023-04-30T06:33:22;10.66;75.60
71173;DHT22;58875;51.996;4.504;2023-04-30T06:35:48;10.79;74.72
71173;DHT22;58875;51.996;4.504;2023-04-30T06:38:15;10.99;74.07
71173;DHT22;58875;51.996;4.504;2023-04-30T06:40:42;11.35;73.30
71173;DHT22;58875;51.996;4.504;2023-04-30T06:43:08;11.61;72.09
71173;DHT22;58875;51.996;4.504;2023-04-30T06:45:33;11.85;71.35
71173;DHT22;58875;51.996;4.504;2023-04-30T06:48:00;12.02;71.27
71173;DHT22;58875;51.996;4.504;2023-04-30T06:50:25;12.19;70.40
71173;DHT22;58875;51.996;4.504;2023-04-30T06:52:51;12.23;69.67
71173;DHT22;58875;51.996;4.504;2023-04-30T06:55:17;12.34;69.59
71173;DHT22;58875;51.996;4.504;2023-04-30T06:57:42;12.44;69.14
71173;DHT22;58875;51.996;4.504;2023-04-30T07:00:08;12.56;69.10
71173;DHT22;58875;51.996;4.504;2023-04-30T07:02:34;12.76;68.63
71173;DHT22;58875;51.996;4.504;2023-04-30T07:05:00;12.99;68.14
71173;DHT22;58875;51.996;4.504;2023-04-30T07:07:25;13.18;67.33
71173;DHT22;58875;51.996;4.504;2023-04-30T07:09:51;13.23;67.48
71173;DHT22;58875;51.996;4.504;2023-04-30T07:12:19;13.35;66.63
71173;DHT22;58875;51.996;4.504;2023-04-30T07:14:44;13.56;65.86
71173;DHT22;58875;51.996;4.504;2023-04-30T07:17:10;13.60;66.00
71173;DHT22;58875;51.996;4.504;2023-04-30T07:19:35;13.79;65.33
71173;DHT22;58875;51.996;4.504;2023-04-30T07:22:01;13.76;66.02
71173;DHT22;58875;51.996;4.504;2023-04-30T07:24:27;14.03;65.39
71173;DHT22;58875;51.996;4.504;2023-04-30T07:26:53;14.38;65.04
71173;DHT22;58875;51.996;4.504;2023-04-30T07:29:19;14.65;62.19
71173;DHT22;58875;51.996;4.504;2023-04-30T07:31:44;14.49;63.67
71173;DHT22;58875;51.996;4.504;2023-04-30T07:34:10;14.58;63.20
71173;DHT22;58875;51.996;4.504;2023-04-30T07:36:36;14.80;62.47
71173;DHT22;58875;51.996;4.504;2023-04-30T07:39:03;15.18;61.04
71173;DHT22;58875;51.996;4.504;2023-04-30T07:41:29;15.46;60.49
71173;DHT22;58875;51.996;4.504;2023-04-30T07:43:55;15.87;59.39
71173;DHT22;58875;51.996;4.504;2023-04-30T07:46:20;15.95;58.98
71173;DHT22;58875;51.996;4.504;2023-04-30T07:48:46;16.05;59.59
71173;DHT22;58875;51.996;4.504;2023-04-30T07:51:11;16.32;58.23
71173;DHT22;58875;51.996;4.504;2023-04-30T07:53:37;16.62;57.03
71173;DHT22;58875;51.996;4.504;2023-04-30T07:56:02;17.10;56.08
71173;DHT22;58875;51.996;4.504;2023-04-30T07:58:29;17.78;55.02
71173;DHT22;58875;51.996;4.504;2023-04-30T08:00:54;18.22;53.69
71173;DHT22;58875;51.996;4.504;2023-04-30T08:03:20;18.26;53.24
71173;DHT22;58875;51.996;4.504;2023-04-30T08:05:46;18.03;54.69
71173;DHT22;58875;51.996;4.504;2023-04-30T08:08:11;18.17;53.90
71173;DHT22;58875;51.996;4.504;2023-04-30T08:10:37;18.13;55.11
71173;DHT22;58875;51.996;4.504;2023-04-30T08:13:04;18.13;55.01
71173;DHT22;58875;51.996;4.504;2023-04-30T08:15:29;18.34;54.69
71173;DHT22;58875;51.996;4.504;2023-04-30T08:17:55;18.41;53.72
71173;DHT22;58875;51.996;4.504;2023-04-30T08:20:21;18.51;53.11
71173;DHT22;58875;51.996;4.504;2023-04-30T08:22:48;18.44;54.18
71173;DHT22;58875;51.996;4.504;2023-04-30T08:25:13;18.43;53.78
71173;DHT22;58875;51.996;4.504;2023-04-30T08:27:39;18.18;53.79
71173;DHT22;58875;51.996;4.504;2023-04-30T08:30:05;17.83;54.45
71173;DHT22;58875;51.996;4.504;2023-04-30T08:32:35;17.42;56.21
71173;DHT22;58875;51.996;4.504;2023-04-30T08:35:05;17.59;57.94
71173;DHT22;58875;51.996;4.504;2023-04-30T08:37:30;18.16;54.50
71173;DHT22;58875;51.996;4.504;2023-04-30T08:39:57;18.02;54.18
71173;DHT22;58875;51.996;4.504;2023-04-30T08:42:25;18.44;52.69
71173;DHT22;58875;51.996;4.504;2023-04-30T08:44:54;18.72;53.50
71173;DHT22;58875;51.996;4.504;2023-04-30T08:47:19;19.11;51.78
71173;DHT22;58875;51.996;4.504;2023-04-30T08:49:46;19.60;49.65
71173;DHT22;58875;51.996;4.504;2023-04-30T08:52:12;19.66;49.72
71173;DHT22;58875;51.996;4.504;2023-04-30T08:54:37;19.23;51.34
71173;DHT22;58875;51.996;4.504;2023-04-30T08:57:04;18.60;52.06
71173;DHT22;58875;51.996;4.504;2023-04-30T08:59:29;18.60;55.24
71173;DHT22;58875;51.996;4.504;2023-04-30T09:01:55;18.53;51.90
71173;DHT22;58875;51.996;4.504;2023-04-30T09:04:20;18.34;53.44
71173;DHT22;58875;51.996;4.504;2023-04-30T09:06:46;18.61;52.41
71173;DHT22;58875;51.996;4.504;2023-04-30T09:09:13;18.89;52.29
71173;DHT22;58875;51.996;4.504;2023-04-30T09:11:40;18.79;53.47
71173;DHT22;58875;51.996;4.504;2023-04-30T09:14:06;18.36;53.45
71173;DHT22;58875;51.996;4.504;2023-04-30T09:16:47;17.66;56.22
71173;DHT22;58875;51.996;4.504;2023-04-30T09:19:26;17.62;56.18
71173;DHT22;58875;51.996;4.504;2023-04-30T09:21:52;17.30;57.80
71173;DHT22;58875;51.996;4.504;2023-04-30T09:24:17;17.31;56.44
71173;DHT22;58875;51.996;4.504;2023-04-30T09:26:45;17.41;56.47
71173;DHT22;58875;51.996;4.504;2023-04-30T09:29:14;17.46;58.20
71173;DHT22;58875;51.996;4.504;2023-04-30T09:31:42;17.62;55.72
71173;DHT22;58875;51.996;4.504;2023-04-30T09:34:09;17.59;55.49
71173;DHT22;58875;51.996;4.504;2023-04-30T09:36:35;17.59;57.32
71173;DHT22;58875;51.996;4.504;2023-04-30T09:39:10;17.73;56.30
71173;DHT22;58875;51.996;4.504;2023-04-30T09:41:37;17.92;57.15
71173;DHT22;58875;51.996;4.504;2023-04-30T09:44:03;17.73;55.34
71173;DHT22;58875;51.996;4.504;2023-04-30T09:46:34;17.41;56.97
71173;DHT22;58875;51.996;4.504;2023-04-30T09:49:04;17.31;57.92
71173;DHT22;58875;51.996;4.504;2023-04-30T09:51:30;17.11;55.74
71173;DHT22;58875;51.996;4.504;2023-04-30T09:53:56;16.69;58.90
71173;DHT22;58875;51.996;4.504;2023-04-30T09:56:25;17.00;58.04
71173;DHT22;58875;51.996;4.504;2023-04-30T09:58:53;17.42;56.75
71173;DHT22;58875;51.996;4.504;2023-04-30T10:01:20;17.38;58.18
71173;DHT22;58875;51.996;4.504;2023-04-30T10:03:48;17.63;56.40
71173;DHT22;58875;51.996;4.504;2023-04-30T10:06:14;17.63;54.31
71173;DHT22;58875;51.996;4.504;2023-04-30T10:08:45;17.63;57.42
71173;DHT22;58875;51.996;4.504;2023-04-30T10:11:17;17.93;56.32
71173;DHT22;58875;51.996;4.504;2023-04-30T10:16:42;17.94;55.55
71173;DHT22;58875;51.996;4.504;2023-04-30T10:19:17;17.81;55.42
71173;DHT22;58875;51.996;4.504;2023-04-30T10:21:45;17.79;54.19
71173;DHT22;58875;51.996;4.504;2023-04-30T10:24:15;17.99;53.61
71173;DHT22;58875;51.996;4.504;2023-04-30T10:26:45;17.96;52.45
71173;DHT22;58875;51.996;4.504;2023-04-30T10:29:16;18.03;54.76
71173;DHT22;58875;51.996;4.504;2023-04-30T10:31:45;18.24;54.85
71173;DHT22;58875;51.996;4.504;2023-04-30T10:36:50;17.89;53.93
71173;DHT22;58875;51.996;4.504;2023-04-30T10:39:23;18.04;53.49
71173;DHT22;58875;51.996;4.504;2023-04-30T10:42:02;18.29;54.42
71173;DHT22;58875;51.996;4.504;2023-04-30T10:44:31;18.34;51.94
71173;DHT22;58875;51.996;4.504;2023-04-30T10:47:02;18.44;51.69
71173;DHT22;58875;51.996;4.504;2023-04-30T10:49:29;18.64;51.51
71173;DHT22;58875;51.996;4.504;2023-04-30T10:52:01;18.20;51.78
71173;DHT22;58875;51.996;4.504;2023-04-30T10:54:30;17.89;53.67
71173;DHT22;58875;51.996;4.504;2023-04-30T10:57:13;18.09;52.04
71173;DHT22;58875;51.996;4.504;2023-04-30T10:59:50;18.41;52.19
71173;DHT22;58875;51.996;4.504;2023-04-30T11:02:16;18.68;51.67
71173;DHT22;58875;51.996;4.504;2023-04-30T11:07:34;18.94;52.42
71173;DHT22;58875;51.996;4.504;2023-04-30T11:10:01;18.81;51.54
71173;DHT22;58875;51.996;4.504;2023-04-30T11:12:27;19.02;52.49
71173;DHT22;58875;51.996;4.504;2023-04-30T11:15:11;19.16;50.52
71173;DHT22;58875;51.996;4.504;2023-04-30T11:17:37;19.32;51.57
71173;DHT22;58875;51.996;4.504;2023-04-30T11:20:03;19.30;49.97
71173;DHT22;58875;51.996;4.504;2023-04-30T11:22:29;19.36;50.45
71173;DHT22;58875;51.996;4.504;2023-04-30T11:25:10;19.34;49.72
71173;DHT22;58875;51.996;4.504;2023-04-30T11:27:40;19.08;51.03
71173;DHT22;58875;51.996;4.504;2023-04-30T11:30:12;19.15;49.95
71173;DHT22;58875;51.996;4.504;2023-04-30T11:32:42;18.99;49.25
71173;DHT22;58875;51.996;4.504;2023-04-30T11:35:08;19.22;49.80
71173;DHT22;58875;51.996;4.504;2023-04-30T11:37:41;19.30;48.92
71173;DHT22;58875;51.996;4.504;2023-04-30T11:40:12;19.29;50.83
71173;DHT22;58875;51.996;4.504;2023-04-30T11:42:39;19.13;49.38
71173;DHT22;58875;51.996;4.504;2023-04-30T11:47:58;19.18;51.94
71173;DHT22;58875;51.996;4.504;2023-04-30T11:50:26;19.43;49.45
71173;DHT22;58875;51.996;4.504;2023-04-30T11:52:58;19.56;50.74
71173;DHT22;58875;51.996;4.504;2023-04-30T11:55:27;19.62;48.02
71173;DHT22;58875;51.996;4.504;2023-04-30T11:57:55;19.57;49.16
71173;DHT22;58875;51.996;4.504;2023-04-30T12:00:28;19.52;50.51
71173;DHT22;58875;51.996;4.504;2023-04-30T12:02:54;19.70;49.48
71173;DHT22;58875;51.996;4.504;2023-04-30T12:05:23;19.90;48.31
71173;DHT22;58875;51.996;4.504;2023-04-30T12:07:58;19.95;47.34
71173;DHT22;58875;51.996;4.504;2023-04-30T12:10:24;19.98;48.24
71173;DHT22;58875;51.996;4.504;2023-04-30T12:12:52;20.07;48.04
71173;DHT22;58875;51.996;4.504;2023-04-30T12:15:21;20.11;49.76
71173;DHT22;58875;51.996;4.504;2023-04-30T12:17:58;20.36;48.29
71173;DHT22;58875;51.996;4.504;2023-04-30T12:20:30;20.51;47.85
71173;DHT22;58875;51.996;4.504;2023-04-30T12:22:56;20.44;46.23
71173;DHT22;58875;51.996;4.504;2023-04-30T12:25:23;20.35;46.69
71173;DHT22;58875;51.996;4.504;2023-04-30T12:27:52;20.48;48.03
71173;DHT22;58875;51.996;4.504;2023-04-30T12:30:20;20.76;48.68
71173;DHT22;58875;51.996;4.504;2023-04-30T12:32:49;20.68;49.04
71173;DHT22;58875;51.996;4.504;2023-04-30T12:35:20;20.55;46.63
71173;DHT22;58875;51.996;4.504;2023-04-30T12:37:52;20.68;46.20
71173;DHT22;58875;51.996;4.504;2023-04-30T12:40:21;20.66;45.72
71173;DHT22;58875;51.996;4.504;2023-04-30T12:42:47;20.72;45.32
71173;DHT22;58875;51.996;4.504;2023-04-30T12:45:50;20.72;44.57
71173;DHT22;58875;51.996;4.504;2023-04-30T12:48:18;20.71;44.71
71173;DHT22;58875;51.996;4.504;2023-04-30T12:51:00;20.62;46.63
71173;DHT22;58875;51.996;4.504;2023-04-30T12:53:27;20.72;46.10
71173;DHT22;58875;51.996;4.504;2023-04-30T12:56:06;20.79;45.15
71173;DHT22;58875;51.996;4.504;2023-04-30T12:58:33;20.96;47.01
71173;DHT22;58875;51.996;4.504;2023-04-30T13:00:59;21.24;47.23
71173;DHT22;58875;51.996;4.504;2023-04-30T13:03:24;21.16;45.38
71173;DHT22;58875;51.996;4.504;2023-04-30T13:05:51;21.17;44.99
71173;DHT22;58875;51.996;4.504;2023-04-30T13:08:18;21.10;44.46
71173;DHT22;58875;51.996;4.504;2023-04-30T13:10:45;20.93;44.76
71173;DHT22;58875;51.996;4.504;2023-04-30T13:13:13;20.86;43.88
71173;DHT22;58875;51.996;4.504;2023-04-30T13:15:39;20.90;44.87
71173;DHT22;58875;51.996;4.504;2023-04-30T13:18:07;20.99;45.08
71173;DHT22;58875;51.996;4.504;2023-04-30T13:20:36;20.85;44.39
71173;DHT22;58875;51.996;4.504;2023-04-30T13:23:02;20.73;45.60
71173;DHT22;58875;51.996;4.504;2023-04-30T13:25:28;20.99;45.28
71173;DHT22;58875;51.996;4.504;2023-04-30T13:27:54;21.04;43.48
71173;DHT22;58875;51.996;4.504;2023-04-30T13:30:19;20.89;43.63
71173;DHT22;58875;51.996;4.504;2023-04-30T13:32:45;21.00;45.19
71173;DHT22;58875;51.996;4.504;2023-04-30T13:35:11;21.27;44.21
71173;DHT22;58875;51.996;4.504;2023-04-30T13:37:37;21.23;42.70
71173;DHT22;58875;51.996;4.504;2023-04-30T13:40:07;21.19;43.67
71173;DHT22;58875;51.996;4.504;2023-04-30T13:42:33;21.28;43.86
71173;DHT22;58875;51.996;4.504;2023-04-30T13:44:58;21.27;44.04
71173;DHT22;58875;51.996;4.504;2023-04-30T13:47:24;21.23;44.97
71173;DHT22;58875;51.996;4.504;2023-04-30T13:49:49;20.96;45.43
71173;DHT22;58875;51.996;4.504;2023-04-30T13:52:15;20.87;45.28
71173;DHT22;58875;51.996;4.504;2023-04-30T13:54:40;20.71;44.83
71173;DHT22;58875;51.996;4.504;2023-04-30T13:57:06;20.57;45.71
71173;DHT22;58875;51.996;4.504;2023-04-30T13:59:32;20.63;45.08
71173;DHT22;58875;51.996;4.504;2023-04-30T14:01:58;20.86;45.60
71173;DHT22;58875;51.996;4.504;2023-04-30T14:04:24;21.13;46.81
71173;DHT22;58875;51.996;4.504;2023-04-30T14:06:50;21.43;43.85
71173;DHT22;58875;51.996;4.504;2023-04-30T14:09:17;21.48;41.53
71173;DHT22;58875;51.996;4.504;2023-04-30T14:11:42;21.20;41.41
71173;DHT22;58875;51.996;4.504;2023-04-30T14:14:08;21.22;41.75
71173;DHT22;58875;51.996;4.504;2023-04-30T14:16:33;20.97;41.27
71173;DHT22;58875;51.996;4.504;2023-04-30T14:18:59;21.11;40.99
71173;DHT22;58875;51.996;4.504;2023-04-30T14:21:25;21.24;40.86
71173;DHT22;58875;51.996;4.504;2023-04-30T14:23:53;21.13;43.21
71173;DHT22;58875;51.996;4.504;2023-04-30T14:26:19;21.26;41.58
71173;DHT22;58875;51.996;4.504;2023-04-30T14:28:46;21.27;41.54
71173;DHT22;58875;51.996;4.504;2023-04-30T14:31:11;21.41;42.39
71173;DHT22;58875;51.996;4.504;2023-04-30T14:33:37;21.54;41.70
71173;DHT22;58875;51.996;4.504;2023-04-30T14:36:03;21.66;41.70
71173;DHT22;58875;51.996;4.504;2023-04-30T14:38:29;21.74;42.80
71173;DHT22;58875;51.996;4.504;2023-04-30T14:40:54;21.58;39.75
71173;DHT22;58875;51.996;4.504;2023-04-30T14:43:20;21.61;39.93
71173;DHT22;58875;51.996;4.504;2023-04-30T14:45:46;21.48;40.00
71173;DHT22;58875;51.996;4.504;2023-04-30T14:48:11;21.44;40.31
71173;DHT22;58875;51.996;4.504;2023-04-30T14:50:37;21.58;40.34
71173;DHT22;58875;51.996;4.504;2023-04-30T14:53:03;21.86;41.02
71173;DHT22;58875;51.996;4.504;2023-04-30T14:55:30;21.82;39.81
71173;DHT22;58875;51.996;4.504;2023-04-30T14:57:57;21.57;40.51
71173;DHT22;58875;51.996;4.504;2023-04-30T15:00:22;21.62;41.27
71173;DHT22;58875;51.996;4.504;2023-04-30T15:02:48;21.59;40.98
71173;DHT22;58875;51.996;4.504;2023-04-30T15:05:13;21.61;40.58
71173;DHT22;58875;51.996;4.504;2023-04-30T15:07:39;21.55;41.14
71173;DHT22;58875;51.996;4.504;2023-04-30T15:10:05;21.58;42.01
71173;DHT22;58875;51.996;4.504;2023-04-30T15:12:31;21.73;39.55
71173;DHT22;58875;51.996;4.504;2023-04-30T15:14:58;21.71;40.78
71173;DHT22;58875;51.996;4.504;2023-04-30T15:17:25;21.58;40.08
71173;DHT22;58875;51.996;4.504;2023-04-30T15:19:50;21.34;41.61
71173;DHT22;58875;51.996;4.504;2023-04-30T15:22:16;21.34;42.94
71173;DHT22;58875;51.996;4.504;2023-04-30T15:24:41;21.28;42.94
71173;DHT22;58875;51.996;4.504;2023-04-30T15:27:07;21.45;41.13
71173;DHT22;58875;51.996;4.504;2023-04-30T15:29:32;21.48;41.38
71173;DHT22;58875;51.996;4.504;2023-04-30T15:31:58;21.40;41.52
71173;DHT22;58875;51.996;4.504;2023-04-30T15:34:24;21.33;41.59
71173;DHT22;58875;51.996;4.504;2023-04-30T15:36:50;21.22;41.22
71173;DHT22;58875;51.996;4.504;2023-04-30T15:39:16;21.10;41.84
71173;DHT22;58875;51.996;4.504;2023-04-30T15:41:42;21.00;42.14
71173;DHT22;58875;51.996;4.504;2023-04-30T15:44:09;20.89;42.76
71173;DHT22;58875;51.996;4.504;2023-04-30T15:46:34;20.66;41.85
71173;DHT22;58875;51.996;4.504;2023-04-30T15:49:00;20.77;42.82
71173;DHT22;58875;51.996;4.504;2023-04-30T15:51:26;20.80;42.00
71173;DHT22;58875;51.996;4.504;2023-04-30T15:53:53;20.96;43.11
71173;DHT22;58875;51.996;4.504;2023-04-30T15:56:19;21.13;43.15
71173;DHT22;58875;51.996;4.504;2023-04-30T15:58:51;21.17;41.81
71173;DHT22;58875;51.996;4.504;2023-04-30T16:01:17;21.17;42.36
71173;DHT22;58875;51.996;4.504;2023-04-30T16:03:43;21.10;41.70
71173;DHT22;58875;51.996;4.504;2023-04-30T16:06:09;21.20;41.67
71173;DHT22;58875;51.996;4.504;2023-04-30T16:08:35;21.13;41.69
71173;DHT22;58875;51.996;4.504;2023-04-30T16:11:01;21.10;42.57